sensor_id;sensor_type;location;lat;lon;timestamp;P1;durP1;ratioP1;P2;durP2;ratioP2
16820;SDS011;8527;49.740;6.604;2023-09-08T00:02:36;21.60;;;10.30;;
16820;SDS011;8527;49.740;6.604;2023-09-08T00:07:43;21.45;;;11.18;;
16820;SDS011;8527;49.740;6.604;2023-09-08T00:12:44;19.58;;;10.95;;
16820;SDS011;8527;49.740;6.604;2023-09-08T00:17:45;15.48;;;9.77;;
16820;SDS011;8527;49.740;6.604;2023-09-08T00:22:47;16.10;;;10.10;;
16820;SDS011;8527;49.740;6.604;2023-09-08T00:27:51;29.63;;;10.88;;
16820;SDS011;8527;49.740;6.604;2023-09-08T00:32:50;17.50;;;10.55;;
16820;SDS011;8527;49.740;6.604;2023-09-08T00:37:52;17.23;;;10.23;;
16820;SDS011;8527;49.740;6.604;2023-09-08T00:42:53;17.55;;;10.50;;
16820;SDS011;8527;49.740;6.604;2023-09-08T00:47:51;24.45;;;10.52;;
16820;SDS011;8527;49.740;6.604;2023-09-08T00:52:49;15.77;;;10.95;;
16820;SDS011;8527;49.740;6.604;2023-09-08T00:58:06;23.48;;;11.60;;
16820;SDS011;8527;49.740;6.604;2023-09-08T01:03:05;18.52;;;10.38;;
16820;SDS011;8527;49.740;6.604;2023-09-08T01:08:04;16.95;;;10.23;;
16820;SDS011;8527;49.740;6.604;2023-09-08T01:13:10;17.38;;;10.50;;
16820;SDS011;8527;49.740;6.604;2023-09-08T01:18:11;17.58;;;10.90;;
16820;SDS011;8527;49.740;6.604;2023-09-08T01:23:11;21.38;;;11.82;;
16820;SDS011;8527;49.740;6.604;2023-09-08T01:28:22;20.90;;;11.07;;
16820;SDS011;8527;49.740;6.604;2023-09-08T01:33:24;26.08;;;11.52;;
16820;SDS011;8527;49.740;6.604;2023-09-08T01:38:24;20.80;;;11.10;;
16820;SDS011;8527;49.740;6.604;2023-09-08T01:43:25;17.63;;;10.65;;
16820;SDS011;8527;49.740;6.604;2023-09-08T01:48:23;15.43;;;10.48;;
16820;SDS011;8527;49.740;6.604;2023-09-08T01:53:25;20.02;;;10.38;;
16820;SDS011;8527;49.740;6.604;2023-09-08T01:58:26;20.55;;;10.15;;
16820;SDS011;8527;49.740;6.604;2023-09-08T02:03:32;18.88;;;9.93;;
16820;SDS011;8527;49.740;6.604;2023-09-08T02:08:34;23.73;;;10.55;;
16820;SDS011;8527;49.740;6.604;2023-09-08T02:13:34;23.13;;;10.50;;
16820;SDS011;8527;49.740;6.604;2023-09-08T02:18:35;20.67;;;9.75;;
16820;SDS011;8527;49.740;6.604;2023-09-08T02:23:33;18.60;;;10.07;;
16820;SDS011;8527;49.740;6.604;2023-09-08T02:28:38;22.33;;;10.70;;
16820;SDS011;8527;49.740;6.604;2023-09-08T02:33:41;18.48;;;10.23;;
16820;SDS011;8527;49.740;6.604;2023-09-08T02:38:42;19.15;;;10.27;;
16820;SDS011;8527;49.740;6.604;2023-09-08T02:43:46;19.13;;;10.65;;
16820;SDS011;8527;49.740;6.604;2023-09-08T02:48:48;19.30;;;10.85;;
16820;SDS011;8527;49.740;6.604;2023-09-08T02:53:52;21.23;;;10.55;;
16820;SDS011;8527;49.740;6.604;2023-09-08T02:58:53;24.55;;;10.82;;
16820;SDS011;8527;49.740;6.604;2023-09-08T03:03:54;16.35;;;10.40;;
16820;SDS011;8527;49.740;6.604;2023-09-08T03:08:53;24.88;;;11.25;;
16820;SDS011;8527;49.740;6.604;2023-09-08T03:13:54;20.73;;;9.93;;
16820;SDS011;8527;49.740;6.604;2023-09-08T03:18:54;18.67;;;10.43;;
16820;SDS011;8527;49.740;6.604;2023-09-08T03:23:55;18.02;;;10.63;;
16820;SDS011;8527;49.740;6.604;2023-09-08T03:29:08;18.50;;;11.40;;
16820;SDS011;8527;49.740;6.604;2023-09-08T03:34:06;16.20;;;10.02;;
16820;SDS011;8527;49.740;6.604;2023-09-08T03:39:05;20.55;;;11.70;;
16820;SDS011;8527;49.740;6.604;2023-09-08T03:44:08;19.70;;;11.45;;
16820;SDS011;8527;49.740;6.604;2023-09-08T03:49:07;18.48;;;10.52;;
16820;SDS011;8527;49.740;6.604;2023-09-08T03:54:05;18.00;;;11.02;;
16820;SDS011;8527;49.740;6.604;2023-09-08T03:59:07;17.48;;;10.65;;
16820;SDS011;8527;49.740;6.604;2023-09-08T04:04:11;17.27;;;10.50;;
16820;SDS011;8527;49.740;6.604;2023-09-08T04:09:12;17.55;;;10.57;;
16820;SDS011;8527;49.740;6.604;2023-09-08T04:14:13;19.98;;;10.70;;
16820;SDS011;8527;49.740;6.604;2023-09-08T04:19:12;18.27;;;11.43;;
16820;SDS011;8527;49.740;6.604;2023-09-08T04:24:13;21.80;;;12.18;;
16820;SDS011;8527;49.740;6.604;2023-09-08T04:29:14;18.70;;;10.80;;
16820;SDS011;8527;49.740;6.604;2023-09-08T04:34:25;20.45;;;11.48;;
16820;SDS011;8527;49.740;6.604;2023-09-08T04:39:33;22.55;;;11.65;;
16820;SDS011;8527;49.740;6.604;2023-09-08T04:44:39;21.60;;;11.70;;
16820;SDS011;8527;49.740;6.604;2023-09-08T04:49:37;21.45;;;12.65;;
16820;SDS011;8527;49.740;6.604;2023-09-08T04:54:37;19.58;;;11.73;;
16820;SDS011;8527;49.740;6.604;2023-09-08T04:59:35;21.55;;;12.77;;
16820;SDS011;8527;49.740;6.604;2023-09-08T05:04:37;21.58;;;11.65;;
16820;SDS011;8527;49.740;6.604;2023-09-08T05:09:48;18.15;;;11.60;;
16820;SDS011;8527;49.740;6.604;2023-09-08T05:14:58;26.15;;;11.85;;
16820;SDS011;8527;49.740;6.604;2023-09-08T05:20:04;16.45;;;10.82;;
16820;SDS011;8527;49.740;6.604;2023-09-08T05:25:08;17.35;;;11.57;;
16820;SDS011;8527;49.740;6.604;2023-09-08T05:30:08;20.80;;;11.40;;
16820;SDS011;8527;49.740;6.604;2023-09-08T05:35:10;21.10;;;11.55;;
16820;SDS011;8527;49.740;6.604;2023-09-08T05:40:12;23.08;;;12.27;;
16820;SDS011;8527;49.740;6.604;2023-09-08T05:45:16;22.25;;;12.95;;
16820;SDS011;8527;49.740;6.604;2023-09-08T05:50:23;23.80;;;13.88;;
16820;SDS011;8527;49.740;6.604;2023-09-08T05:55:28;28.75;;;14.57;;
16820;SDS011;8527;49.740;6.604;2023-09-08T06:00:29;21.77;;;12.63;;
16820;SDS011;8527;49.740;6.604;2023-09-08T06:05:30;27.27;;;13.95;;
16820;SDS011;8527;49.740;6.604;2023-09-08T06:10:29;26.73;;;13.65;;
16820;SDS011;8527;49.740;6.604;2023-09-08T06:15:34;25.23;;;14.10;;
16820;SDS011;8527;49.740;6.604;2023-09-08T06:20:37;26.38;;;12.90;;
16820;SDS011;8527;49.740;6.604;2023-09-08T06:25:51;26.95;;;12.95;;
16820;SDS011;8527;49.740;6.604;2023-09-08T06:30:55;27.23;;;13.32;;
16820;SDS011;8527;49.740;6.604;2023-09-08T06:35:56;28.45;;;13.75;;
16820;SDS011;8527;49.740;6.604;2023-09-08T06:41:09;30.40;;;13.30;;
16820;SDS011;8527;49.740;6.604;2023-09-08T06:46:11;30.20;;;13.35;;
16820;SDS011;8527;49.740;6.604;2023-09-08T06:51:15;30.02;;;14.50;;
16820;SDS011;8527;49.740;6.604;2023-09-08T06:56:18;28.00;;;14.23;;
16820;SDS011;8527;49.740;6.604;2023-09-08T07:01:21;30.63;;;13.98;;
16820;SDS011;8527;49.740;6.604;2023-09-08T07:06:25;44.70;;;14.18;;
16820;SDS011;8527;49.740;6.604;2023-09-08T07:11:24;28.13;;;14.30;;
16820;SDS011;8527;49.740;6.604;2023-09-08T07:16:25;24.98;;;13.70;;
16820;SDS011;8527;49.740;6.604;2023-09-08T07:21:26;33.63;;;13.40;;
16820;SDS011;8527;49.740;6.604;2023-09-08T07:26:25;34.38;;;14.55;;
16820;SDS011;8527;49.740;6.604;2023-09-08T07:31:24;26.42;;;13.68;;
16820;SDS011;8527;49.740;6.604;2023-09-08T07:36:22;32.47;;;14.32;;
16820;SDS011;8527;49.740;6.604;2023-09-08T07:41:23;25.20;;;13.55;;
16820;SDS011;8527;49.740;6.604;2023-09-08T07:46:25;26.42;;;13.68;;
16820;SDS011;8527;49.740;6.604;2023-09-08T07:51:24;24.65;;;12.93;;
16820;SDS011;8527;49.740;6.604;2023-09-08T07:56:25;19.92;;;11.73;;
16820;SDS011;8527;49.740;6.604;2023-09-08T08:01:24;32.38;;;13.15;;
16820;SDS011;8527;49.740;6.604;2023-09-08T08:06:22;22.30;;;12.05;;
16820;SDS011;8527;49.740;6.604;2023-09-08T08:11:21;24.23;;;12.90;;
16820;SDS011;8527;49.740;6.604;2023-09-08T08:16:26;27.92;;;12.75;;
16820;SDS011;8527;49.740;6.604;2023-09-08T08:21:24;22.90;;;11.77;;
16820;SDS011;8527;49.740;6.604;2023-09-08T08:26:25;23.88;;;12.50;;
16820;SDS011;8527;49.740;6.604;2023-09-08T08:31:30;20.15;;;12.00;;
16820;SDS011;8527;49.740;6.604;2023-09-08T08:36:31;25.02;;;11.88;;
16820;SDS011;8527;49.740;6.604;2023-09-08T08:41:32;21.77;;;11.45;;
16820;SDS011;8527;49.740;6.604;2023-09-08T08:46:41;23.95;;;11.32;;
16820;SDS011;8527;49.740;6.604;2023-09-08T08:51:50;22.08;;;11.68;;
16820;SDS011;8527;49.740;6.604;2023-09-08T08:56:55;33.38;;;11.98;;
16820;SDS011;8527;49.740;6.604;2023-09-08T09:01:57;23.95;;;11.65;;
16820;SDS011;8527;49.740;6.604;2023-09-08T09:06:56;27.73;;;11.20;;
16820;SDS011;8527;49.740;6.604;2023-09-08T09:11:58;20.20;;;10.98;;
16820;SDS011;8527;49.740;6.604;2023-09-08T09:16:59;20.83;;;11.23;;
16820;SDS011;8527;49.740;6.604;2023-09-08T09:22:02;23.40;;;11.38;;
16820;SDS011;8527;49.740;6.604;2023-09-08T09:27:07;22.83;;;11.80;;
16820;SDS011;8527;49.740;6.604;2023-09-08T09:32:14;29.67;;;11.40;;
16820;SDS011;8527;49.740;6.604;2023-09-08T09:37:16;23.42;;;11.32;;
16820;SDS011;8527;49.740;6.604;2023-09-08T09:42:18;26.23;;;11.05;;
16820;SDS011;8527;49.740;6.604;2023-09-08T09:47:18;28.80;;;12.02;;
16820;SDS011;8527;49.740;6.604;2023-09-08T09:52:20;34.80;;;10.95;;
16820;SDS011;8527;49.740;6.604;2023-09-08T09:57:29;27.30;;;11.68;;
16820;SDS011;8527;49.740;6.604;2023-09-08T10:02:29;34.85;;;12.75;;
16820;SDS011;8527;49.740;6.604;2023-09-08T10:07:31;28.58;;;11.35;;
16820;SDS011;8527;49.740;6.604;2023-09-08T10:17:35;26.98;;;12.65;;
16820;SDS011;8527;49.740;6.604;2023-09-08T10:22:35;28.10;;;12.48;;
16820;SDS011;8527;49.740;6.604;2023-09-08T10:27:38;27.48;;;12.73;;
16820;SDS011;8527;49.740;6.604;2023-09-08T10:32:37;22.45;;;11.93;;
16820;SDS011;8527;49.740;6.604;2023-09-08T10:37:38;23.27;;;10.82;;
16820;SDS011;8527;49.740;6.604;2023-09-08T10:42:39;19.90;;;11.88;;
16820;SDS011;8527;49.740;6.604;2023-09-08T10:47:41;20.88;;;11.13;;
16820;SDS011;8527;49.740;6.604;2023-09-08T10:53:03;17.58;;;10.43;;
16820;SDS011;8527;49.740;6.604;2023-09-08T10:58:11;20.98;;;11.75;;
16820;SDS011;8527;49.740;6.604;2023-09-08T11:03:14;19.27;;;11.18;;
16820;SDS011;8527;49.740;6.604;2023-09-08T11:08:24;24.27;;;11.95;;
16820;SDS011;8527;49.740;6.604;2023-09-08T11:13:26;21.00;;;10.90;;
16820;SDS011;8527;49.740;6.604;2023-09-08T11:18:25;19.52;;;11.05;;
16820;SDS011;8527;49.740;6.604;2023-09-08T11:23:31;17.33;;;11.05;;
16820;SDS011;8527;49.740;6.604;2023-09-08T11:28:32;20.45;;;11.20;;
16820;SDS011;8527;49.740;6.604;2023-09-08T11:33:35;19.95;;;10.68;;
16820;SDS011;8527;49.740;6.604;2023-09-08T11:38:39;22.02;;;10.45;;
16820;SDS011;8527;49.740;6.604;2023-09-08T11:43:42;19.13;;;10.20;;
16820;SDS011;8527;49.740;6.604;2023-09-08T11:48:41;17.15;;;10.45;;
16820;SDS011;8527;49.740;6.604;2023-09-08T11:53:39;22.35;;;11.13;;
16820;SDS011;8527;49.740;6.604;2023-09-08T11:58:44;18.52;;;10.18;;
16820;SDS011;8527;49.740;6.604;2023-09-08T12:09:03;15.95;;;9.90;;
16820;SDS011;8527;49.740;6.604;2023-09-08T12:14:06;17.83;;;9.90;;
16820;SDS011;8527;49.740;6.604;2023-09-08T12:19:05;17.02;;;10.27;;
16820;SDS011;8527;49.740;6.604;2023-09-08T12:24:04;16.70;;;10.93;;
16820;SDS011;8527;49.740;6.604;2023-09-08T12:29:14;20.73;;;10.63;;
16820;SDS011;8527;49.740;6.604;2023-09-08T12:34:15;18.27;;;10.73;;
16820;SDS011;8527;49.740;6.604;2023-09-08T12:39:14;16.17;;;10.75;;
16820;SDS011;8527;49.740;6.604;2023-09-08T12:44:17;21.88;;;10.95;;
16820;SDS011;8527;49.740;6.604;2023-09-08T12:49:16;19.60;;;10.50;;
16820;SDS011;8527;49.740;6.604;2023-09-08T12:54:15;15.35;;;10.60;;
16820;SDS011;8527;49.740;6.604;2023-09-08T12:59:13;16.13;;;10.00;;
16820;SDS011;8527;49.740;6.604;2023-09-08T13:04:16;17.20;;;10.13;;
16820;SDS011;8527;49.740;6.604;2023-09-08T13:09:22;15.13;;;9.95;;
16820;SDS011;8527;49.740;6.604;2023-09-08T13:14:28;17.17;;;10.20;;
16820;SDS011;8527;49.740;6.604;2023-09-08T13:19:29;15.32;;;9.75;;
16820;SDS011;8527;49.740;6.604;2023-09-08T13:24:28;17.35;;;9.13;;
16820;SDS011;8527;49.740;6.604;2023-09-08T13:29:26;21.83;;;10.60;;
16820;SDS011;8527;49.740;6.604;2023-09-08T13:34:29;17.23;;;9.32;;
16820;SDS011;8527;49.740;6.604;2023-09-08T13:39:27;14.07;;;9.57;;
16820;SDS011;8527;49.740;6.604;2023-09-08T13:44:26;20.00;;;9.20;;
16820;SDS011;8527;49.740;6.604;2023-09-08T13:49:30;20.10;;;9.30;;
16820;SDS011;8527;49.740;6.604;2023-09-08T13:54:28;17.52;;;9.43;;
16820;SDS011;8527;49.740;6.604;2023-09-08T13:59:29;18.20;;;9.05;;
16820;SDS011;8527;49.740;6.604;2023-09-08T14:04:34;18.55;;;8.80;;
16820;SDS011;8527;49.740;6.604;2023-09-08T14:09:42;19.13;;;8.82;;
16820;SDS011;8527;49.740;6.604;2023-09-08T14:14:41;14.57;;;8.18;;
16820;SDS011;8527;49.740;6.604;2023-09-08T14:19:46;17.13;;;8.20;;
16820;SDS011;8527;49.740;6.604;2023-09-08T14:24:45;18.65;;;8.77;;
16820;SDS011;8527;49.740;6.604;2023-09-08T14:29:44;24.63;;;9.27;;
16820;SDS011;8527;49.740;6.604;2023-09-08T14:34:42;18.45;;;7.93;;
16820;SDS011;8527;49.740;6.604;2023-09-08T14:39:46;15.00;;;8.45;;
16820;SDS011;8527;49.740;6.604;2023-09-08T14:44:47;14.55;;;8.20;;
16820;SDS011;8527;49.740;6.604;2023-09-08T14:49:46;18.92;;;8.35;;
16820;SDS011;8527;49.740;6.604;2023-09-08T14:54:58;13.00;;;7.13;;
16820;SDS011;8527;49.740;6.604;2023-09-08T15:00:00;13.43;;;7.53;;
16820;SDS011;8527;49.740;6.604;2023-09-08T15:05:01;12.25;;;7.07;;
16820;SDS011;8527;49.740;6.604;2023-09-08T15:10:09;11.48;;;7.38;;
16820;SDS011;8527;49.740;6.604;2023-09-08T15:15:10;14.35;;;7.40;;
16820;SDS011;8527;49.740;6.604;2023-09-08T15:20:11;14.68;;;7.70;;
16820;SDS011;8527;49.740;6.604;2023-09-08T15:25:12;13.07;;;7.47;;
16820;SDS011;8527;49.740;6.604;2023-09-08T15:30:12;16.55;;;8.00;;
16820;SDS011;8527;49.740;6.604;2023-09-08T15:35:11;11.35;;;7.30;;
16820;SDS011;8527;49.740;6.604;2023-09-08T15:40:13;12.77;;;6.97;;
16820;SDS011;8527;49.740;6.604;2023-09-08T15:45:11;11.80;;;6.18;;
16820;SDS011;8527;49.740;6.604;2023-09-08T15:50:10;15.70;;;6.88;;
16820;SDS011;8527;49.740;6.604;2023-09-08T15:55:08;16.02;;;5.95;;
16820;SDS011;8527;49.740;6.604;2023-09-08T16:00:16;9.70;;;6.10;;
16820;SDS011;8527;49.740;6.604;2023-09-08T16:05:14;8.85;;;6.13;;
16820;SDS011;8527;49.740;6.604;2023-09-08T16:10:15;12.35;;;6.20;;
16820;SDS011;8527;49.740;6.604;2023-09-08T16:15:20;13.60;;;6.60;;
16820;SDS011;8527;49.740;6.604;2023-09-08T16:20:21;11.68;;;5.90;;
16820;SDS011;8527;49.740;6.604;2023-09-08T16:25:22;12.38;;;6.50;;
16820;SDS011;8527;49.740;6.604;2023-09-08T16:30:24;12.23;;;6.05;;
16820;SDS011;8527;49.740;6.604;2023-09-08T16:35:22;9.57;;;6.05;;
16820;SDS011;8527;49.740;6.604;2023-09-08T16:40:23;11.82;;;6.53;;
16820;SDS011;8527;49.740;6.604;2023-09-08T16:45:27;11.55;;;6.05;;
16820;SDS011;8527;49.740;6.604;2023-09-08T16:50:37;15.60;;;6.20;;
16820;SDS011;8527;49.740;6.604;2023-09-08T16:55:35;12.80;;;6.55;;
16820;SDS011;8527;49.740;6.604;2023-09-08T17:00:36;12.55;;;6.95;;
16820;SDS011;8527;49.740;6.604;2023-09-08T17:05:41;12.25;;;6.53;;
16820;SDS011;8527;49.740;6.604;2023-09-08T17:10:45;10.48;;;6.95;;
16820;SDS011;8527;49.740;6.604;2023-09-08T17:15:46;12.38;;;7.10;;
16820;SDS011;8527;49.740;6.604;2023-09-08T17:20:47;15.77;;;7.85;;
16820;SDS011;8527;49.740;6.604;2023-09-08T17:25:54;16.42;;;8.40;;
16820;SDS011;8527;49.740;6.604;2023-09-08T17:30:56;15.30;;;7.85;;
16820;SDS011;8527;49.740;6.604;2023-09-08T17:35:58;12.77;;;8.35;;
16820;SDS011;8527;49.740;6.604;2023-09-08T17:41:01;15.95;;;8.52;;
16820;SDS011;8527;49.740;6.604;2023-09-08T17:46:09;16.20;;;8.40;;
16820;SDS011;8527;49.740;6.604;2023-09-08T17:51:13;16.95;;;9.20;;
16820;SDS011;8527;49.740;6.604;2023-09-08T17:56:16;18.60;;;10.27;;
16820;SDS011;8527;49.740;6.604;2023-09-08T18:01:17;15.23;;;9.32;;
16820;SDS011;8527;49.740;6.604;2023-09-08T18:06:16;16.45;;;8.52;;
16820;SDS011;8527;49.740;6.604;2023-09-08T18:11:20;17.88;;;8.60;;
16820;SDS011;8527;49.740;6.604;2023-09-08T18:16:27;26.35;;;10.20;;
16820;SDS011;8527;49.740;6.604;2023-09-08T18:21:35;21.08;;;9.60;;
16820;SDS011;8527;49.740;6.604;2023-09-08T18:26:34;21.02;;;9.30;;
16820;SDS011;8527;49.740;6.604;2023-09-08T18:31:35;13.13;;;8.15;;
16820;SDS011;8527;49.740;6.604;2023-09-08T18:36:35;19.63;;;9.27;;
16820;SDS011;8527;49.740;6.604;2023-09-08T18:41:35;22.70;;;9.30;;
16820;SDS011;8527;49.740;6.604;2023-09-08T18:46:41;13.23;;;8.65;;
16820;SDS011;8527;49.740;6.604;2023-09-08T18:51:40;16.45;;;9.05;;
16820;SDS011;8527;49.740;6.604;2023-09-08T18:56:41;16.45;;;8.52;;
16820;SDS011;8527;49.740;6.604;2023-09-08T19:01:45;17.45;;;9.32;;
16820;SDS011;8527;49.740;6.604;2023-09-08T19:06:47;14.35;;;8.63;;
16820;SDS011;8527;49.740;6.604;2023-09-08T19:11:50;17.42;;;9.07;;
16820;SDS011;8527;49.740;6.604;2023-09-08T19:16:51;13.63;;;8.57;;
16820;SDS011;8527;49.740;6.604;2023-09-08T19:21:52;19.13;;;8.73;;
16820;SDS011;8527;49.740;6.604;2023-09-08T19:26:50;15.10;;;8.05;;
16820;SDS011;8527;49.740;6.604;2023-09-08T19:31:54;18.00;;;9.13;;
16820;SDS011;8527;49.740;6.604;2023-09-08T19:36:54;14.95;;;8.43;;
16820;SDS011;8527;49.740;6.604;2023-09-08T19:41:53;21.70;;;9.02;;
16820;SDS011;8527;49.740;6.604;2023-09-08T19:47:00;20.10;;;9.15;;
16820;SDS011;8527;49.740;6.604;2023-09-08T19:51:59;16.85;;;8.95;;
16820;SDS011;8527;49.740;6.604;2023-09-08T19:56:57;23.63;;;11.38;;
16820;SDS011;8527;49.740;6.604;2023-09-08T20:01:55;22.20;;;11.07;;
16820;SDS011;8527;49.740;6.604;2023-09-08T20:07:00;18.80;;;9.50;;
16820;SDS011;8527;49.740;6.604;2023-09-08T20:11:59;22.67;;;10.13;;
16820;SDS011;8527;49.740;6.604;2023-09-08T20:17:05;26.17;;;10.43;;
16820;SDS011;8527;49.740;6.604;2023-09-08T20:22:10;18.70;;;10.32;;
16820;SDS011;8527;49.740;6.604;2023-09-08T20:27:08;17.67;;;9.57;;
16820;SDS011;8527;49.740;6.604;2023-09-08T20:32:12;18.40;;;10.00;;
16820;SDS011;8527;49.740;6.604;2023-09-08T20:37:11;20.30;;;9.82;;
16820;SDS011;8527;49.740;6.604;2023-09-08T20:42:12;16.70;;;9.93;;
16820;SDS011;8527;49.740;6.604;2023-09-08T20:47:14;17.02;;;10.32;;
16820;SDS011;8527;49.740;6.604;2023-09-08T20:52:12;21.60;;;10.38;;
16820;SDS011;8527;49.740;6.604;2023-09-08T20:57:11;17.55;;;9.77;;
16820;SDS011;8527;49.740;6.604;2023-09-08T21:02:09;20.73;;;10.80;;
16820;SDS011;8527;49.740;6.604;2023-09-08T21:07:10;19.65;;;10.18;;
16820;SDS011;8527;49.740;6.604;2023-09-08T21:12:11;16.13;;;9.93;;
16820;SDS011;8527;49.740;6.604;2023-09-08T21:17:10;21.95;;;9.65;;
16820;SDS011;8527;49.740;6.604;2023-09-08T21:22:11;18.42;;;9.93;;
16820;SDS011;8527;49.740;6.604;2023-09-08T21:27:09;14.50;;;9.85;;
16820;SDS011;8527;49.740;6.604;2023-09-08T21:32:10;21.50;;;9.98;;
16820;SDS011;8527;49.740;6.604;2023-09-08T21:37:11;18.95;;;9.85;;
16820;SDS011;8527;49.740;6.604;2023-09-08T21:42:15;16.65;;;9.73;;
16820;SDS011;8527;49.740;6.604;2023-09-08T21:47:17;22.08;;;9.10;;
16820;SDS011;8527;49.740;6.604;2023-09-08T21:52:18;16.90;;;9.45;;
16820;SDS011;8527;49.740;6.604;2023-09-08T21:57:17;21.42;;;9.80;;
16820;SDS011;8527;49.740;6.604;2023-09-08T22:02:15;17.10;;;9.88;;
16820;SDS011;8527;49.740;6.604;2023-09-08T22:07:14;19.20;;;9.73;;
16820;SDS011;8527;49.740;6.604;2023-09-08T22:12:17;16.13;;;9.65;;
16820;SDS011;8527;49.740;6.604;2023-09-08T22:17:15;18.92;;;10.45;;
16820;SDS011;8527;49.740;6.604;2023-09-08T22:22:17;21.73;;;9.55;;
16820;SDS011;8527;49.740;6.604;2023-09-08T22:27:24;24.67;;;10.00;;
16820;SDS011;8527;49.740;6.604;2023-09-08T22:32:22;17.85;;;10.32;;
16820;SDS011;8527;49.740;6.604;2023-09-08T22:37:20;16.95;;;10.45;;
16820;SDS011;8527;49.740;6.604;2023-09-08T22:42:28;25.05;;;10.45;;
16820;SDS011;8527;49.740;6.604;2023-09-08T22:47:26;22.85;;;10.10;;
16820;SDS011;8527;49.740;6.604;2023-09-08T22:52:34;15.90;;;10.05;;
16820;SDS011;8527;49.740;6.604;2023-09-08T22:57:35;25.90;;;10.35;;
16820;SDS011;8527;49.740;6.604;2023-09-08T23:02:33;18.33;;;10.48;;
16820;SDS011;8527;49.740;6.604;2023-09-08T23:07:34;19.70;;;9.95;;
16820;SDS011;8527;49.740;6.604;2023-09-08T23:12:40;19.13;;;11.32;;
16820;SDS011;8527;49.740;6.604;2023-09-08T23:17:41;21.40;;;10.90;;
16820;SDS011;8527;49.740;6.604;2023-09-08T23:22:40;17.48;;;10.32;;
16820;SDS011;8527;49.740;6.604;2023-09-08T23:27:42;20.45;;;10.02;;
16820;SDS011;8527;49.740;6.604;2023-09-08T23:32:44;19.10;;;10.63;;
16820;SDS011;8527;49.740;6.604;2023-09-08T23:37:50;20.63;;;10.07;;
16820;SDS011;8527;49.740;6.604;2023-09-08T23:42:54;18.88;;;10.57;;
16820;SDS011;8527;49.740;6.604;2023-09-08T23:47:56;18.63;;;10.80;;
16820;SDS011;8527;49.740;6.604;2023-09-08T23:52:57;16.17;;;10.10;;
16820;SDS011;8527;49.740;6.604;2023-09-08T23:57:58;22.13;;;11.02;;
